createdAt,value
2023-05-21T00:00:45.696Z,78.34
2023-05-21T00:03:33.994Z,78.62
2023-05-21T00:06:03.697Z,78.95
2023-05-21T00:08:31.665Z,78.84
2023-05-21T00:10:59.484Z,78.77
2023-05-21T00:13:27.163Z,78.86
2023-05-21T00:15:54.904Z,79.13
2023-05-21T00:18:22.603Z,79.25
2023-05-21T00:20:50.313Z,79.28
2023-05-21T00:23:18.672Z,79.53
2023-05-21T00:25:46.907Z,79.57
2023-05-21T00:28:14.686Z,79.91
2023-05-21T00:30:43.144Z,79.77
2023-05-21T00:33:13.932Z,79.65
2023-05-21T00:35:41.837Z,79.53
2023-05-21T00:38:10.193Z,79.50
2023-05-21T00:40:41.192Z,79.67
2023-05-21T00:43:10.787Z,79.76
2023-05-21T00:45:38.657Z,79.76
2023-05-21T00:48:06.974Z,79.76
2023-05-21T00:50:36.217Z,79.86
2023-05-21T00:53:04.922Z,79.66
2023-05-21T00:55:33.156Z,79.75
2023-05-21T00:58:01.185Z,79.85
2023-05-21T01:00:28.998Z,79.82
2023-05-21T01:02:56.842Z,79.88
2023-05-21T01:05:24.647Z,79.97
2023-05-21T01:07:52.720Z,79.99
2023-05-21T01:10:20.605Z,79.90
2023-05-21T01:12:49.582Z,79.83
2023-05-21T01:15:17.400Z,79.97
2023-05-21T01:17:48.854Z,80.06
2023-05-21T01:20:19.141Z,80.04
2023-05-21T01:22:56.603Z,80.13
2023-05-21T01:25:25.043Z,80.30
2023-05-21T01:27:52.822Z,80.45
2023-05-21T01:30:23.872Z,80.48
2023-05-21T01:33:04.029Z,80.45
2023-05-21T01:35:41.860Z,80.55
2023-05-21T01:38:22.583Z,80.65
2023-05-21T01:40:58.853Z,80.74
2023-05-21T01:43:29.557Z,81.04
2023-05-21T01:45:59.045Z,81.12
2023-05-21T01:48:29.156Z,81.05
2023-05-21T01:51:02.021Z,81.18
2023-05-21T01:53:29.857Z,81.21
2023-05-21T01:55:59.429Z,81.42
2023-05-21T01:58:27.167Z,81.41
2023-05-21T02:00:55.667Z,81.41
2023-05-21T02:03:27.286Z,81.48
2023-05-21T02:05:55.767Z,81.54
2023-05-21T02:08:23.697Z,81.61
2023-05-21T02:10:51.662Z,81.52
2023-05-21T02:13:25.196Z,81.55
2023-05-21T02:15:55.004Z,81.55
2023-05-21T02:18:23.215Z,81.64
2023-05-21T02:20:50.967Z,81.69
2023-05-21T02:23:18.721Z,81.86
2023-05-21T02:25:46.575Z,81.90
2023-05-21T02:28:14.332Z,82.02
2023-05-21T02:30:42.065Z,81.97
2023-05-21T02:33:09.923Z,81.88
2023-05-21T02:35:37.925Z,81.96
2023-05-21T02:38:05.990Z,82.04
2023-05-21T02:40:33.704Z,81.99
2023-05-21T02:43:01.466Z,82.06
2023-05-21T02:45:30.595Z,82.13
2023-05-21T02:47:58.442Z,82.06
2023-05-21T02:50:26.137Z,82.06
2023-05-21T02:52:53.833Z,82.07
2023-05-21T02:55:22.762Z,82.23
2023-05-21T02:57:50.550Z,82.33
2023-05-21T03:00:18.235Z,82.26
2023-05-21T03:02:46.151Z,82.31
2023-05-21T03:05:14.258Z,82.25
2023-05-21T03:07:42.486Z,82.49
2023-05-21T03:10:10.707Z,82.60
2023-05-21T03:12:38.447Z,82.60
2023-05-21T03:15:06.574Z,82.60
2023-05-21T03:17:34.286Z,82.58
2023-05-21T03:20:02.256Z,82.54
2023-05-21T03:22:29.971Z,82.71
2023-05-21T03:24:58.320Z,82.93
2023-05-21T03:27:26.193Z,82.87
2023-05-21T03:29:55.948Z,82.87
2023-05-21T03:32:24.070Z,82.88
2023-05-21T03:34:51.953Z,82.87
2023-05-21T03:37:19.710Z,82.95
2023-05-21T03:39:47.426Z,82.98
2023-05-21T03:42:15.113Z,82.96
2023-05-21T03:44:42.868Z,82.87
2023-05-21T03:47:10.568Z,82.74
2023-05-21T03:49:38.343Z,83.01
2023-05-21T03:52:06.272Z,82.98
2023-05-21T03:54:33.969Z,83.03
2023-05-21T03:57:01.674Z,82.96
2023-05-21T03:59:29.433Z,82.91
2023-05-21T04:01:57.160Z,82.86
2023-05-21T04:04:24.927Z,82.77
2023-05-21T04:06:54.318Z,82.68
2023-05-21T04:09:22.246Z,82.69
2023-05-21T04:11:49.927Z,82.67
2023-05-21T04:14:17.633Z,82.65
2023-05-21T04:16:45.418Z,82.53
2023-05-21T04:19:13.196Z,82.42
2023-05-21T04:21:41.030Z,82.34
2023-05-21T04:24:08.710Z,82.26
2023-05-21T04:26:36.375Z,82.09
2023-05-21T04:29:05.068Z,81.88
2023-05-21T04:31:33.064Z,81.66
2023-05-21T04:34:00.788Z,81.55
2023-05-21T04:36:29.112Z,81.43
2023-05-21T04:38:56.850Z,81.24
2023-05-21T04:41:24.564Z,81.14
2023-05-21T04:43:55.427Z,80.97
2023-05-21T04:46:26.053Z,80.79
2023-05-21T04:48:55.370Z,80.61
2023-05-21T04:51:24.949Z,80.48
2023-05-21T04:53:53.968Z,80.24
2023-05-21T04:56:27.834Z,80.12
2023-05-21T04:58:55.859Z,79.89
2023-05-21T05:01:23.862Z,79.39
2023-05-21T05:03:51.835Z,79.23
2023-05-21T05:06:19.564Z,79.07
2023-05-21T05:08:47.290Z,78.89
2023-05-21T05:11:15.017Z,78.11
2023-05-21T05:13:42.976Z,78.01
2023-05-21T05:16:11.372Z,77.08
2023-05-21T05:18:39.123Z,76.51
2023-05-21T05:21:06.875Z,76.30
2023-05-21T05:23:34.709Z,75.83
2023-05-21T05:26:02.808Z,73.69
2023-05-21T05:28:30.579Z,73.51
2023-05-21T05:30:58.285Z,73.77
2023-05-21T05:33:26.041Z,73.49
2023-05-21T05:35:54.173Z,72.88
2023-05-21T05:38:22.227Z,72.46
2023-05-21T05:40:50.067Z,72.53
2023-05-21T05:43:17.943Z,72.05
2023-05-21T05:45:45.692Z,71.36
2023-05-21T05:48:13.407Z,71.47
2023-05-21T05:50:41.167Z,71.56
2023-05-21T05:53:08.920Z,71.67
2023-05-21T05:55:36.812Z,71.10
2023-05-21T05:58:04.964Z,70.53
2023-05-21T06:00:38.347Z,69.53
2023-05-21T06:03:06.279Z,69.09
2023-05-21T06:05:34.089Z,70.01
2023-05-21T06:08:01.856Z,70.10
2023-05-21T06:10:29.605Z,69.69
2023-05-21T06:12:57.326Z,69.37
2023-05-21T06:15:25.055Z,68.54
2023-05-21T06:17:52.748Z,68.27
2023-05-21T06:20:20.559Z,68.15
2023-05-21T06:22:48.367Z,68.01
2023-05-21T06:25:16.406Z,67.61
2023-05-21T06:27:44.116Z,67.55
2023-05-21T06:30:12.010Z,66.15
2023-05-21T06:32:39.807Z,65.98
2023-05-21T06:35:08.988Z,65.42
2023-05-21T06:37:36.729Z,66.02
2023-05-21T06:40:05.483Z,64.83
2023-05-21T06:42:33.212Z,64.23
2023-05-21T06:45:01.979Z,63.79
2023-05-21T06:47:29.767Z,63.83
2023-05-21T06:49:57.533Z,61.21
2023-05-21T06:52:26.832Z,60.78
2023-05-21T06:54:54.551Z,61.14
2023-05-21T06:57:22.251Z,61.14
2023-05-21T06:59:49.976Z,60.44
2023-05-21T07:02:17.778Z,59.85
2023-05-21T07:04:45.601Z,59.27
2023-05-21T07:07:13.312Z,59.96
2023-05-21T07:09:41.318Z,60.32
2023-05-21T07:12:09.011Z,59.24
2023-05-21T07:14:36.708Z,58.62
2023-05-21T07:17:04.832Z,58.54
2023-05-21T07:19:32.767Z,58.52
2023-05-21T07:22:00.606Z,58.18
2023-05-21T07:24:28.280Z,57.45
2023-05-21T07:26:56.001Z,57.06
2023-05-21T07:29:23.827Z,55.79
2023-05-21T07:31:51.486Z,56.43
2023-05-21T07:34:19.304Z,55.15
2023-05-21T07:36:47.027Z,55.30
2023-05-21T07:39:14.711Z,54.63
2023-05-21T07:41:42.392Z,53.91
2023-05-21T07:44:10.538Z,53.15
2023-05-21T07:46:38.300Z,53.30
2023-05-21T07:49:06.099Z,51.98
2023-05-21T07:51:33.901Z,52.26
2023-05-21T07:54:01.602Z,52.41
2023-05-21T07:56:29.788Z,53.05
2023-05-21T07:58:57.474Z,53.59
2023-05-21T08:01:25.338Z,51.86
2023-05-21T08:03:53.230Z,51.70
2023-05-21T08:06:22.365Z,51.03
2023-05-21T08:08:50.472Z,49.72
2023-05-21T08:11:18.206Z,51.69
2023-05-21T08:13:46.159Z,48.26
2023-05-21T08:16:13.933Z,47.33
2023-05-21T08:18:41.726Z,48.75
2023-05-21T08:21:09.717Z,47.90
2023-05-21T08:23:38.403Z,46.67
2023-05-21T08:26:07.156Z,47.33
2023-05-21T08:28:39.000Z,47.44
2023-05-21T08:31:06.724Z,46.90
2023-05-21T08:33:38.554Z,46.35
2023-05-21T08:36:07.336Z,46.30
2023-05-21T08:38:36.589Z,47.70
2023-05-21T08:41:07.945Z,46.91
2023-05-21T08:43:37.212Z,46.18
2023-05-21T08:46:06.514Z,44.82
2023-05-21T08:48:34.974Z,43.54
2023-05-21T08:51:02.842Z,43.78
2023-05-21T08:53:33.220Z,42.74
2023-05-21T08:56:01.709Z,41.93
2023-05-21T08:58:32.349Z,42.77
2023-05-21T09:01:00.504Z,42.34
2023-05-21T09:03:29.438Z,41.01
2023-05-21T09:05:57.863Z,41.40
2023-05-21T09:08:35.304Z,42.14
2023-05-21T09:11:03.680Z,41.14
2023-05-21T09:13:37.428Z,41.33
2023-05-21T09:16:07.427Z,41.79
2023-05-21T09:18:35.098Z,41.62
2023-05-21T09:21:28.881Z,42.20
2023-05-21T09:23:58.599Z,42.48
2023-05-21T09:26:27.005Z,42.02
2023-05-21T09:29:00.186Z,41.64
2023-05-21T09:31:29.813Z,41.19
2023-05-21T09:33:57.631Z,40.46
2023-05-21T09:36:25.752Z,40.57
2023-05-21T09:38:53.460Z,40.86
2023-05-21T09:41:32.114Z,40.78
2023-05-21T09:44:01.648Z,40.84
2023-05-21T09:46:39.126Z,41.04
2023-05-21T09:49:06.979Z,40.48
2023-05-21T09:51:39.231Z,40.31
2023-05-21T09:54:06.916Z,39.53
2023-05-21T09:56:34.655Z,41.02
2023-05-21T09:59:06.489Z,40.59
2023-05-21T10:01:34.910Z,39.97
2023-05-21T10:04:07.775Z,39.87
2023-05-21T10:06:42.162Z,40.11
2023-05-21T10:09:11.601Z,39.42
2023-05-21T10:11:41.079Z,40.03
2023-05-21T10:14:17.259Z,39.76
2023-05-21T10:16:46.537Z,40.30
2023-05-21T10:19:16.192Z,39.90
2023-05-21T10:21:45.936Z,39.15
2023-05-21T10:24:14.044Z,39.60
2023-05-21T10:26:42.764Z,40.12
2023-05-21T10:29:11.227Z,39.36
2023-05-21T10:31:39.126Z,39.31
2023-05-21T10:34:07.923Z,38.74
2023-05-21T10:36:37.984Z,38.91
2023-05-21T10:39:07.940Z,39.69
2023-05-21T10:41:47.116Z,38.93
2023-05-21T10:44:27.236Z,38.71
2023-05-21T10:47:10.423Z,37.90
2023-05-21T10:49:58.296Z,37.64
2023-05-21T10:52:52.442Z,39.18
2023-05-21T10:55:44.395Z,38.37
2023-05-21T10:58:46.749Z,37.52
2023-05-21T11:01:16.240Z,38.17
2023-05-21T11:03:44.354Z,36.75
2023-05-21T11:06:24.020Z,36.30
2023-05-21T11:08:55.284Z,36.08
2023-05-21T11:11:43.004Z,37.05
2023-05-21T11:14:27.961Z,36.97
2023-05-21T11:16:57.087Z,37.08
2023-05-21T11:19:38.433Z,36.67
2023-05-21T11:22:30.931Z,35.83
2023-05-21T11:25:02.247Z,35.81
2023-05-21T11:27:35.995Z,37.00
2023-05-21T11:30:08.747Z,36.94
2023-05-21T11:32:47.648Z,37.33
2023-05-21T11:35:15.513Z,37.48
2023-05-21T11:37:46.130Z,37.51
2023-05-21T11:40:26.003Z,37.78
2023-05-21T11:42:56.003Z,37.57
2023-05-21T11:45:31.140Z,36.91
2023-05-21T11:48:00.224Z,38.16
2023-05-21T11:50:30.747Z,38.32
2023-05-21T11:52:59.901Z,37.76
2023-05-21T11:55:27.780Z,38.38
2023-05-21T11:57:55.870Z,38.99
2023-05-21T12:00:23.692Z,38.47
2023-05-21T12:02:53.046Z,37.55
2023-05-21T12:05:21.561Z,37.14
2023-05-21T12:07:50.506Z,37.67
2023-05-21T12:10:21.729Z,37.35
2023-05-21T12:12:54.640Z,37.47
2023-05-21T12:15:24.584Z,37.56
2023-05-21T12:18:02.282Z,37.78
2023-05-21T12:20:30.241Z,35.89
2023-05-21T12:22:59.076Z,34.96
2023-05-21T12:25:27.735Z,36.57
2023-05-21T12:27:58.228Z,36.93
2023-05-21T12:30:26.993Z,36.94
2023-05-21T12:32:58.245Z,36.40
2023-05-21T12:35:26.238Z,37.61
2023-05-21T12:37:54.245Z,36.82
2023-05-21T12:40:22.522Z,38.03
2023-05-21T12:42:51.862Z,36.52
2023-05-21T12:45:21.196Z,36.74
2023-05-21T12:47:56.461Z,37.70
2023-05-21T12:50:24.590Z,37.10
2023-05-21T12:52:58.188Z,38.11
2023-05-21T12:55:26.384Z,37.46
2023-05-21T12:58:04.531Z,36.52
2023-05-21T13:00:33.078Z,36.13
2023-05-21T13:03:01.968Z,35.93
2023-05-21T13:05:31.137Z,35.53
2023-05-21T13:07:59.103Z,35.62
2023-05-21T13:10:26.789Z,35.80
2023-05-21T13:12:54.643Z,36.06
2023-05-21T13:15:22.683Z,35.64
2023-05-21T13:17:53.074Z,36.80
2023-05-21T13:20:23.945Z,35.71
2023-05-21T13:22:52.279Z,34.40
2023-05-21T13:25:28.048Z,35.26
2023-05-21T13:27:56.257Z,35.88
2023-05-21T13:30:24.130Z,36.66
2023-05-21T13:32:52.439Z,36.60
2023-05-21T13:35:20.593Z,36.70
2023-05-21T13:37:50.412Z,36.33
2023-05-21T13:40:18.533Z,36.07
2023-05-21T13:42:48.521Z,35.77
2023-05-21T13:45:20.331Z,35.81
2023-05-21T13:47:48.616Z,35.38
2023-05-21T13:50:16.942Z,35.57
2023-05-21T13:52:46.211Z,36.37
2023-05-21T13:55:16.143Z,36.35
2023-05-21T13:57:45.032Z,36.35
2023-05-21T14:00:15.804Z,36.34
2023-05-21T14:02:44.692Z,36.32
2023-05-21T14:05:13.621Z,35.49
2023-05-21T14:07:42.279Z,35.42
2023-05-21T14:10:11.127Z,34.82
2023-05-21T14:12:39.061Z,35.38
2023-05-21T14:15:07.806Z,34.91
2023-05-21T14:17:35.812Z,35.26
2023-05-21T14:20:03.940Z,34.59
2023-05-21T14:22:31.592Z,35.20
2023-05-21T14:24:59.336Z,35.91
2023-05-21T14:27:27.759Z,35.79
2023-05-21T14:29:55.527Z,35.68
2023-05-21T14:32:23.458Z,34.27
2023-05-21T14:34:51.361Z,35.24
2023-05-21T14:37:19.179Z,35.57
2023-05-21T14:39:47.223Z,34.97
2023-05-21T14:42:15.214Z,35.08
2023-05-21T14:44:42.915Z,35.28
2023-05-21T14:47:10.990Z,35.24
2023-05-21T14:49:38.783Z,35.66
2023-05-21T14:52:06.955Z,35.51
2023-05-21T14:54:34.701Z,35.77
2023-05-21T14:57:02.450Z,35.96
2023-05-21T14:59:30.150Z,35.75
2023-05-21T15:01:58.448Z,34.56
2023-05-21T15:04:26.676Z,34.62
2023-05-21T15:06:54.499Z,34.99
2023-05-21T15:09:22.347Z,33.97
2023-05-21T15:11:54.060Z,33.98
2023-05-21T15:14:22.417Z,33.94
2023-05-21T15:16:50.199Z,34.72
2023-05-21T15:19:18.126Z,35.15
2023-05-21T15:21:46.184Z,34.19
2023-05-21T15:24:13.905Z,35.38
2023-05-21T15:26:41.562Z,35.55
2023-05-21T15:29:09.318Z,35.59
2023-05-21T15:31:37.320Z,35.35
2023-05-21T15:34:05.111Z,35.70
2023-05-21T15:36:32.780Z,35.18
2023-05-21T15:39:03.707Z,35.23
2023-05-21T15:41:39.007Z,35.16
2023-05-21T15:44:06.745Z,35.32
2023-05-21T15:46:34.581Z,34.84
2023-05-21T15:49:02.390Z,34.05
2023-05-21T15:51:30.146Z,32.92
2023-05-21T15:53:57.966Z,32.72
2023-05-21T15:56:26.725Z,30.64
2023-05-21T15:58:54.454Z,30.29
2023-05-21T16:01:22.492Z,31.57
2023-05-21T16:03:50.373Z,32.14
2023-05-21T16:06:18.472Z,30.62
2023-05-21T16:08:46.693Z,32.02
2023-05-21T16:11:14.534Z,31.87
2023-05-21T16:13:42.418Z,31.54
2023-05-21T16:16:10.255Z,32.41
2023-05-21T16:18:38.870Z,32.90
2023-05-21T16:21:06.796Z,32.93
2023-05-21T16:23:34.528Z,32.46
2023-05-21T16:26:02.383Z,32.95
2023-05-21T16:28:30.415Z,33.42
2023-05-21T16:30:58.474Z,33.65
2023-05-21T16:33:26.600Z,34.38
2023-05-21T16:35:54.515Z,33.87
2023-05-21T16:38:22.905Z,34.27
2023-05-21T16:40:50.801Z,34.60
2023-05-21T16:43:18.554Z,34.77
2023-05-21T16:45:48.908Z,34.37
2023-05-21T16:48:17.241Z,34.73
2023-05-21T16:50:46.959Z,33.98
2023-05-21T16:53:14.885Z,34.62
2023-05-21T16:55:43.390Z,34.62
2023-05-21T16:58:13.520Z,35.07
2023-05-21T17:00:41.366Z,35.24
2023-05-21T17:03:09.235Z,35.23
2023-05-21T17:05:37.410Z,34.90
2023-05-21T17:08:05.976Z,35.33
2023-05-21T17:10:34.083Z,35.09
2023-05-21T17:13:09.787Z,35.93
2023-05-21T17:15:45.988Z,36.25
2023-05-21T17:18:14.652Z,36.11
2023-05-21T17:20:43.773Z,36.53
2023-05-21T17:23:12.103Z,36.65
2023-05-21T17:25:41.093Z,36.84
2023-05-21T17:28:09.118Z,37.54
2023-05-21T17:30:37.039Z,37.95
2023-05-21T17:33:06.635Z,38.00
2023-05-21T17:35:34.912Z,38.30
2023-05-21T17:38:02.722Z,38.45
2023-05-21T17:40:30.643Z,39.54
2023-05-21T17:42:58.404Z,39.44
2023-05-21T17:45:26.273Z,39.32
2023-05-21T17:47:54.146Z,39.20
2023-05-21T17:50:22.129Z,39.78
2023-05-21T17:52:49.866Z,40.40
2023-05-21T17:55:17.687Z,40.53
2023-05-21T17:57:46.324Z,41.24
2023-05-21T18:00:14.396Z,41.81
2023-05-21T18:02:42.473Z,41.56
2023-05-21T18:05:10.848Z,42.02
2023-05-21T18:07:40.580Z,42.88
2023-05-21T18:10:08.867Z,42.78
2023-05-21T18:12:36.824Z,42.27
2023-05-21T18:15:05.366Z,42.95
2023-05-21T18:17:33.270Z,43.66
2023-05-21T18:20:01.063Z,43.59
2023-05-21T18:22:28.772Z,44.29
2023-05-21T18:24:56.491Z,44.63
2023-05-21T18:27:24.210Z,44.78
2023-05-21T18:29:52.386Z,46.13
2023-05-21T18:32:20.301Z,46.10
2023-05-21T18:34:48.530Z,45.94
2023-05-21T18:37:17.136Z,47.12
2023-05-21T18:39:44.947Z,48.28
2023-05-21T18:42:13.987Z,48.69
2023-05-21T18:44:42.243Z,48.07
2023-05-21T18:47:10.073Z,48.90
2023-05-21T18:49:38.255Z,49.18
2023-05-21T18:52:06.590Z,49.98
2023-05-21T18:54:34.392Z,50.14
2023-05-21T18:57:02.123Z,50.01
2023-05-21T18:59:31.305Z,50.23
2023-05-21T19:01:59.205Z,50.63
2023-05-21T19:04:27.556Z,51.10
2023-05-21T19:06:55.902Z,51.80
2023-05-21T19:09:23.933Z,51.86
2023-05-21T19:11:51.910Z,52.30
2023-05-21T19:14:21.039Z,53.39
2023-05-21T19:16:48.738Z,53.07
2023-05-21T19:19:16.631Z,53.54
2023-05-21T19:21:44.591Z,54.21
2023-05-21T19:24:12.418Z,54.23
2023-05-21T19:26:40.304Z,53.90
2023-05-21T19:29:09.659Z,54.65
2023-05-21T19:31:39.344Z,54.88
2023-05-21T19:34:10.858Z,54.79
2023-05-21T19:36:52.389Z,55.31
2023-05-21T19:39:21.421Z,54.96
2023-05-21T19:41:49.360Z,55.35
2023-05-21T19:44:17.455Z,55.64
2023-05-21T19:46:45.307Z,56.68
2023-05-21T19:49:14.648Z,57.54
2023-05-21T19:51:42.572Z,57.43
2023-05-21T19:54:10.789Z,57.75
2023-05-21T19:56:38.676Z,57.52
2023-05-21T19:59:06.457Z,57.34
2023-05-21T20:01:39.444Z,57.32
2023-05-21T20:04:07.683Z,57.43
2023-05-21T20:06:35.859Z,57.80
2023-05-21T20:09:07.534Z,58.20
2023-05-21T20:11:36.283Z,58.36
2023-05-21T20:14:04.538Z,59.32
2023-05-21T20:16:33.603Z,58.69
2023-05-21T20:19:02.461Z,58.73
2023-05-21T20:21:31.710Z,59.25
2023-05-21T20:23:59.678Z,59.91
2023-05-21T20:26:27.624Z,60.02
2023-05-21T20:28:55.653Z,60.52
2023-05-21T20:31:25.325Z,60.54
2023-05-21T20:33:53.955Z,60.57
2023-05-21T20:36:21.891Z,60.63
2023-05-21T20:38:49.618Z,60.22
2023-05-21T20:41:17.396Z,60.43
2023-05-21T20:43:45.876Z,60.99
2023-05-21T20:46:13.990Z,61.56
2023-05-21T20:48:42.524Z,61.46
2023-05-21T20:51:10.668Z,61.31
2023-05-21T20:53:38.404Z,61.60
2023-05-21T20:56:08.339Z,62.32
2023-05-21T20:58:36.279Z,62.53
2023-05-21T21:01:04.149Z,62.20
2023-05-21T21:03:35.010Z,62.55
2023-05-21T21:06:04.452Z,62.54
2023-05-21T21:08:34.858Z,61.78
2023-05-21T21:11:02.832Z,62.43
2023-05-21T21:13:30.831Z,62.71
2023-05-21T21:15:58.692Z,63.46
2023-05-21T21:18:26.442Z,63.81
2023-05-21T21:20:54.661Z,63.87
2023-05-21T21:23:29.261Z,64.00
2023-05-21T21:25:57.310Z,64.38
2023-05-21T21:28:25.050Z,65.68
2023-05-21T21:30:53.082Z,66.05
2023-05-21T21:33:21.253Z,66.47
2023-05-21T21:35:48.984Z,66.75
2023-05-21T21:38:16.947Z,66.59
2023-05-21T21:40:45.395Z,66.95
2023-05-21T21:43:13.240Z,66.91
2023-05-21T21:45:41.099Z,66.68
2023-05-21T21:48:09.026Z,66.03
2023-05-21T21:50:36.887Z,66.58
2023-05-21T21:53:05.971Z,67.06
2023-05-21T21:55:34.200Z,67.08
2023-05-21T21:58:02.113Z,67.67
2023-05-21T22:00:30.052Z,67.56
2023-05-21T22:02:57.877Z,67.93
2023-05-21T22:05:25.675Z,67.50
2023-05-21T22:07:53.368Z,67.86
2023-05-21T22:10:21.377Z,68.38
2023-05-21T22:12:49.085Z,69.04
2023-05-21T22:15:27.793Z,68.77
2023-05-21T22:17:58.724Z,69.35
2023-05-21T22:20:29.407Z,69.57
2023-05-21T22:22:58.059Z,69.96
2023-05-21T22:25:25.991Z,70.08
2023-05-21T22:27:53.718Z,70.26
2023-05-21T22:30:21.585Z,70.29
2023-05-21T22:32:49.540Z,69.91
2023-05-21T22:35:17.383Z,70.29
2023-05-21T22:37:48.396Z,70.77
2023-05-21T22:40:16.093Z,71.02
2023-05-21T22:42:45.358Z,70.55
2023-05-21T22:45:16.118Z,70.98
2023-05-21T22:47:44.248Z,71.11
2023-05-21T22:50:12.972Z,71.50
2023-05-21T22:52:40.958Z,71.38
2023-05-21T22:55:11.399Z,71.82
2023-05-21T22:57:39.425Z,71.84
2023-05-21T23:00:10.043Z,71.93
2023-05-21T23:02:38.069Z,71.94
2023-05-21T23:05:06.100Z,72.14
2023-05-21T23:07:33.826Z,72.18
2023-05-21T23:10:01.653Z,72.06
2023-05-21T23:12:29.713Z,72.45
2023-05-21T23:14:57.481Z,73.02
2023-05-21T23:17:25.220Z,72.61
2023-05-21T23:19:53.578Z,73.33
2023-05-21T23:22:22.082Z,72.55
2023-05-21T23:24:51.124Z,72.76
2023-05-21T23:27:18.950Z,73.71
2023-05-21T23:29:46.611Z,74.20
2023-05-21T23:32:14.352Z,74.30
2023-05-21T23:34:42.311Z,74.54
2023-05-21T23:37:10.991Z,74.38
2023-05-21T23:39:38.778Z,74.65
2023-05-21T23:42:06.863Z,74.58
2023-05-21T23:44:37.731Z,74.01
2023-05-21T23:47:05.513Z,74.50
2023-05-21T23:49:33.252Z,74.61
2023-05-21T23:52:01.767Z,74.56
2023-05-21T23:54:29.510Z,75.07
2023-05-21T23:56:57.327Z,75.17
2023-05-21T23:59:25.307Z,75.52
